Shinkomaru No.8 — JK5142 — position and weather

sailwx.info

Track history (hours):
 
Tides and Currents Weather Stations Pressure Air Temp Water Temp Dewpoint Dewpoint Depression Visibility Wind Speed Wind Dir Waves Ship Positions

Shinkomaru No.8

Last reported at 2017-Jan-20 06:30 UTC. Time now 2017-Jan-20 18:09 UTC.
Position N 34°39' E 134°51'.

Length 61 m; draft 4.4 m.

Type: Tanker. MMSI: 431400035.

Date/timePositionNaut miles runAvg speedWind from/ knotsBaromVisibWave heightAir tempDewpointWater temp
2017-Jan-20 06:30N 34°39' E 134°51'1111.3
2017-Jan-20 05:33N 34°36' E 135°04'2210.9
2017-Jan-20 03:33N 34°14' E 135°07'0 0.1
2017-Jan-20 02:08N 34°14' E 135°07'0 0.0
2017-Jan-20 01:32N 34°14' E 135°07'0 0.0
2017-Jan-19 23:32N 34°14' E 135°07'0 0.0
2017-Jan-19 22:32N 34°14' E 135°07'1 1.0
2017-Jan-19 21:32N 34°15' E 135°06'0 0.0
2017-Jan-19 20:32N 34°15' E 135°06'0 0.0
2017-Jan-19 19:32N 34°15' E 135°06'1 1.5
2017-Jan-19 18:33N 34°15' E 135°04'  
2017-Jan-14 10:29N 34°37' E 134°54'8 9.2
2017-Jan-14 09:33N 34°36' E 135°04'10 9.5
2017-Jan-14 08:33N 34°26' E 135°04'11 9.2
2017-Jan-14 07:21N 34°15' E 135°04'3 3.1
2017-Jan-14 06:21N 34°14' E 135°07'0 0.0
2017-Jan-14 05:32N 34°14' E 135°07'0 0.0
2017-Jan-14 04:08N 34°14' E 135°07'0 0.0
2017-Jan-14 03:31N 34°14' E 135°07'0 0.0
2017-Jan-13 23:25N 34°14' E 135°07'0 0.0
2017-Jan-13 22:19N 34°14' E 135°07'1 1.5
2017-Jan-13 21:33N 34°15' E 135°06'0 0.0
2017-Jan-13 20:32N 34°15' E 135°06'0 0.0
2017-Jan-13 19:33N 34°15' E 135°06'  
Track history (hours):
 
Tides and Currents Weather Stations Pressure Air Temp Water Temp Dewpoint Dewpoint Depression Visibility Wind Speed Wind Dir Waves Ship Positions

Shinkomaru No.8

Last reported at 2017-Jan-20 06:30 UTC. Time now 2017-Jan-20 18:09 UTC.
Position N 34°39' E 134°51'.

Length 61 m; draft 4.4 m.

Type: Tanker. MMSI: 431400035.

Date/timePositionNaut miles runAvg speedWind from/ knotsBaromVisibWave heightAir tempDewpointWater temp
2017-Jan-20 06:30N 34°39' E 134°51'1111.3
2017-Jan-20 05:33N 34°36' E 135°04'2210.9
2017-Jan-20 03:33N 34°14' E 135°07'0 0.1
2017-Jan-20 02:08N 34°14' E 135°07'0 0.0
2017-Jan-20 01:32N 34°14' E 135°07'0 0.0
2017-Jan-19 23:32N 34°14' E 135°07'0 0.0
2017-Jan-19 22:32N 34°14' E 135°07'1 1.0
2017-Jan-19 21:32N 34°15' E 135°06'0 0.0
2017-Jan-19 20:32N 34°15' E 135°06'0 0.0
2017-Jan-19 19:32N 34°15' E 135°06'1 1.5
2017-Jan-19 18:33N 34°15' E 135°04'  
2017-Jan-14 10:29N 34°37' E 134°54'8 9.2
2017-Jan-14 09:33N 34°36' E 135°04'10 9.5
2017-Jan-14 08:33N 34°26' E 135°04'11 9.2
2017-Jan-14 07:21N 34°15' E 135°04'3 3.1
2017-Jan-14 06:21N 34°14' E 135°07'0 0.0
2017-Jan-14 05:32N 34°14' E 135°07'0 0.0
2017-Jan-14 04:08N 34°14' E 135°07'0 0.0
2017-Jan-14 03:31N 34°14' E 135°07'0 0.0
2017-Jan-13 23:25N 34°14' E 135°07'0 0.0
2017-Jan-13 22:19N 34°14' E 135°07'1 1.5
2017-Jan-13 21:33N 34°15' E 135°06'0 0.0
2017-Jan-13 20:32N 34°15' E 135°06'0 0.0
2017-Jan-13 19:33N 34°15' E 135°06'  

Dump ship's entire track history